createdAt,value
2017-06-25T00:00:32.933Z,1003.59
2017-06-25T00:01:13.403Z,1003.55
2017-06-25T00:01:53.898Z,1003.6
2017-06-25T00:02:34.391Z,1003.58
2017-06-25T00:03:14.878Z,1003.56
2017-06-25T00:03:55.375Z,1003.58
2017-06-25T00:04:35.869Z,1003.58
2017-06-25T00:05:16.364Z,1003.55
2017-06-25T00:05:56.859Z,1003.58
2017-06-25T00:08:09.572Z,1003.6
2017-06-25T00:08:50.063Z,1003.61
2017-06-25T00:09:30.571Z,1003.58
2017-06-25T00:10:11.050Z,1003.6
2017-06-25T00:10:51.530Z,1003.61
2017-06-25T00:11:32.024Z,1003.6
2017-06-25T00:12:12.509Z,1003.59
2017-06-25T00:12:53.011Z,1003.58
2017-06-25T00:13:33.496Z,1003.61
2017-06-25T00:14:13.984Z,1003.62
2017-06-25T00:14:54.472Z,1003.62
2017-06-25T00:15:34.964Z,1003.59
2017-06-25T00:16:15.460Z,1003.61
2017-06-25T00:16:55.958Z,1003.62
2017-06-25T00:17:36.456Z,1003.64
2017-06-25T00:18:16.950Z,1003.63
2017-06-25T00:18:57.438Z,1003.65
2017-06-25T00:19:37.953Z,1003.65
2017-06-25T00:20:18.472Z,1003.62
2017-06-25T00:20:58.942Z,1003.69
2017-06-25T00:21:39.432Z,1003.66
2017-06-25T00:22:19.940Z,1003.66
2017-06-25T00:23:00.422Z,1003.68
2017-06-25T00:23:40.917Z,1003.68
2017-06-25T00:24:21.393Z,1003.7
2017-06-25T00:25:01.909Z,1003.7
2017-06-25T00:25:42.390Z,1003.73
2017-06-25T00:26:22.895Z,1003.72
2017-06-25T00:27:03.359Z,1003.71
2017-06-25T00:27:43.862Z,1003.73
2017-06-25T00:28:24.363Z,1003.69
2017-06-25T00:29:04.854Z,1003.64
2017-06-25T00:29:45.351Z,1003.65
2017-06-25T00:30:25.841Z,1003.59
2017-06-25T00:31:06.357Z,1003.57
2017-06-25T00:31:46.852Z,1003.59
2017-06-25T00:32:27.359Z,1003.59
2017-06-25T00:33:07.842Z,1003.6
2017-06-25T00:33:48.331Z,1003.62
2017-06-25T00:34:28.826Z,1003.65
2017-06-25T00:35:09.323Z,1003.62
2017-06-25T00:35:49.811Z,1003.58
2017-06-25T00:36:30.308Z,1003.62
2017-06-25T00:37:10.799Z,1003.6
2017-06-25T00:37:51.278Z,1003.62
2017-06-25T00:38:31.782Z,1003.63
2017-06-25T00:39:12.279Z,1003.65
2017-06-25T00:39:52.775Z,1003.68
2017-06-25T00:40:33.267Z,1003.72
2017-06-25T00:41:13.758Z,1003.68
2017-06-25T00:41:54.253Z,1003.69
2017-06-25T00:42:34.777Z,1003.68
2017-06-25T00:43:15.228Z,1003.67
2017-06-25T00:43:55.716Z,1003.66
2017-06-25T00:44:36.222Z,1003.67
2017-06-25T00:45:16.705Z,1003.64
2017-06-25T00:45:57.179Z,1003.64
2017-06-25T00:46:37.653Z,1003.64
2017-06-25T00:47:18.137Z,1003.61
2017-06-25T00:47:58.642Z,1003.57
2017-06-25T00:48:39.120Z,1003.55
2017-06-25T00:49:19.626Z,1003.55
2017-06-25T00:50:00.116Z,1003.54
2017-06-25T00:50:40.598Z,1003.56
2017-06-25T00:51:21.102Z,1003.54
2017-06-25T00:52:01.599Z,1003.54
2017-06-25T00:52:42.084Z,1003.55
2017-06-25T00:53:22.581Z,1003.55
2017-06-25T00:54:03.063Z,1003.56
2017-06-25T00:54:43.554Z,1003.58
2017-06-25T00:55:24.059Z,1003.56
2017-06-25T00:56:04.589Z,1003.61
2017-06-25T00:56:45.030Z,1003.61
2017-06-25T00:57:25.530Z,1003.6
2017-06-25T00:58:06.017Z,1003.63
2017-06-25T00:58:46.519Z,1003.65
2017-06-25T00:59:27.006Z,1003.65
2017-06-25T01:00:07.505Z,1003.64
2017-06-25T01:00:47.995Z,1003.69
2017-06-25T01:01:28.478Z,1003.72
2017-06-25T01:02:08.975Z,1003.72
2017-06-25T01:02:49.456Z,1003.72
2017-06-25T01:03:29.954Z,1003.71
2017-06-25T01:04:10.453Z,1003.75
2017-06-25T01:04:50.936Z,1003.75
2017-06-25T01:05:31.440Z,1003.76
2017-06-25T01:06:11.932Z,1003.77
2017-06-25T01:06:52.419Z,1003.76
2017-06-25T01:07:32.908Z,1003.79
2017-06-25T01:08:13.405Z,1003.75
2017-06-25T01:08:53.902Z,1003.76
2017-06-25T01:09:34.394Z,1003.77
2017-06-25T01:10:14.885Z,1003.74
2017-06-25T01:10:55.390Z,1003.75
2017-06-25T01:11:35.902Z,1003.74
2017-06-25T01:12:16.386Z,1003.73
2017-06-25T01:12:56.878Z,1003.75
2017-06-25T01:13:37.378Z,1003.76
2017-06-25T01:14:17.867Z,1003.76
2017-06-25T01:14:58.368Z,1003.74
2017-06-25T01:15:38.864Z,1003.75
2017-06-25T01:16:19.356Z,1003.74
2017-06-25T01:16:59.867Z,1003.73
2017-06-25T01:17:40.373Z,1003.72
2017-06-25T01:18:20.867Z,1003.66
2017-06-25T01:19:01.360Z,1003.7
2017-06-25T01:19:41.838Z,1003.66
2017-06-25T01:20:22.322Z,1003.67
2017-06-25T01:21:02.829Z,1003.7
2017-06-25T01:21:43.323Z,1003.72
2017-06-25T01:22:23.817Z,1003.72
2017-06-25T01:23:04.320Z,1003.74
2017-06-25T01:23:44.820Z,1003.73
2017-06-25T01:24:25.338Z,1003.72
2017-06-25T01:25:05.811Z,1003.72
2017-06-25T01:25:46.306Z,1003.76
2017-06-25T01:26:26.803Z,1003.75
2017-06-25T01:27:07.303Z,1003.76
2017-06-25T01:27:47.793Z,1003.79
2017-06-25T01:28:28.280Z,1003.8
2017-06-25T01:29:08.772Z,1003.79
2017-06-25T01:29:49.272Z,1003.79
2017-06-25T01:30:29.770Z,1003.74
2017-06-25T01:31:10.257Z,1003.75
2017-06-25T01:31:50.821Z,1003.73
2017-06-25T01:32:31.329Z,1003.73
2017-06-25T01:33:11.819Z,1003.7
2017-06-25T01:33:52.319Z,1003.67
2017-06-25T01:34:32.822Z,1003.72
2017-06-25T01:35:13.308Z,1003.69
2017-06-25T01:35:53.798Z,1003.69
2017-06-25T01:36:34.296Z,1003.7
2017-06-25T01:37:14.782Z,1003.73
2017-06-25T01:37:55.293Z,1003.75
2017-06-25T01:38:35.779Z,1003.75
2017-06-25T01:39:16.275Z,1003.71
2017-06-25T01:39:56.779Z,1003.7
2017-06-25T01:40:37.282Z,1003.74
2017-06-25T01:41:17.776Z,1003.73
2017-06-25T01:41:58.273Z,1003.7
2017-06-25T01:42:38.753Z,1003.72
2017-06-25T01:43:19.253Z,1003.75
2017-06-25T01:43:59.742Z,1003.74
2017-06-25T01:44:40.224Z,1003.72
2017-06-25T01:45:20.725Z,1003.75
2017-06-25T01:46:01.211Z,1003.71
2017-06-25T01:46:41.700Z,1003.73
2017-06-25T01:47:22.196Z,1003.7
2017-06-25T01:48:02.708Z,1003.64
2017-06-25T01:48:43.240Z,1003.64
2017-06-25T01:49:23.706Z,1003.66
2017-06-25T01:50:04.229Z,1003.69
2017-06-25T01:50:44.682Z,1003.67
2017-06-25T01:51:25.185Z,1003.68
2017-06-25T01:52:05.674Z,1003.69
2017-06-25T01:52:46.178Z,1003.67
2017-06-25T01:53:26.669Z,1003.68
2017-06-25T01:54:07.161Z,1003.66
2017-06-25T01:54:47.653Z,1003.62
2017-06-25T01:55:28.140Z,1003.64
2017-06-25T01:56:08.650Z,1003.61
2017-06-25T01:56:49.134Z,1003.66
2017-06-25T01:57:29.625Z,1003.58
2017-06-25T01:58:10.102Z,1003.61
2017-06-25T01:58:50.606Z,1003.62
2017-06-25T01:59:31.099Z,1003.63
2017-06-25T02:00:11.577Z,1003.67
2017-06-25T02:00:52.077Z,1003.64
2017-06-25T02:01:32.572Z,1003.64
2017-06-25T02:02:13.062Z,1003.6
2017-06-25T02:02:53.559Z,1003.62
2017-06-25T02:03:34.049Z,1003.61
2017-06-25T02:04:14.548Z,1003.57
2017-06-25T02:04:55.032Z,1003.59
2017-06-25T02:05:35.538Z,1003.62
2017-06-25T02:06:16.017Z,1003.61
2017-06-25T02:06:56.513Z,1003.59
2017-06-25T02:07:37.004Z,1003.61
2017-06-25T02:08:17.497Z,1003.6
2017-06-25T02:08:57.993Z,1003.58
2017-06-25T02:09:38.492Z,1003.6
2017-06-25T02:10:18.987Z,1003.57
2017-06-25T02:10:59.496Z,1003.59
2017-06-25T02:11:39.985Z,1003.58
2017-06-25T02:12:20.487Z,1003.51
2017-06-25T02:13:00.984Z,1003.58
2017-06-25T02:13:41.481Z,1003.57
2017-06-25T02:14:21.981Z,1003.54
2017-06-25T02:15:02.467Z,1003.5
2017-06-25T02:15:42.962Z,1003.5
2017-06-25T02:16:23.468Z,1003.47
2017-06-25T02:17:03.959Z,1003.48
2017-06-25T02:17:44.455Z,1003.47
2017-06-25T02:18:24.950Z,1003.43
2017-06-25T02:19:05.436Z,1003.41
2017-06-25T02:19:45.940Z,1003.37
2017-06-25T02:20:26.426Z,1003.38
2017-06-25T02:21:06.915Z,1003.38
2017-06-25T02:21:47.412Z,1003.32
2017-06-25T02:22:27.901Z,1003.34
2017-06-25T02:23:08.394Z,1003.32
2017-06-25T02:23:48.925Z,1003.3
2017-06-25T02:24:29.379Z,1003.33
2017-06-25T02:25:09.875Z,1003.33
2017-06-25T02:25:50.366Z,1003.31
2017-06-25T02:26:30.861Z,1003.29
2017-06-25T02:27:11.357Z,1003.23
2017-06-25T02:27:51.873Z,1003.21
2017-06-25T02:28:32.380Z,1003.21
2017-06-25T02:29:12.846Z,1003.2
2017-06-25T02:29:53.349Z,1003.19
2017-06-25T02:30:33.853Z,1003.17
2017-06-25T02:31:14.342Z,1003.19
2017-06-25T02:31:54.831Z,1003.19
2017-06-25T02:32:35.310Z,1003.18
2017-06-25T02:33:15.819Z,1003.19
2017-06-25T02:33:56.317Z,1003.17
2017-06-25T02:34:36.807Z,1003.19
2017-06-25T02:35:17.307Z,1003.16
2017-06-25T02:35:57.791Z,1003.15
2017-06-25T02:36:38.281Z,1003.16
2017-06-25T02:37:18.757Z,1003.18
2017-06-25T02:37:59.249Z,1003.16
2017-06-25T02:38:39.735Z,1003.1
2017-06-25T02:39:20.229Z,1003.12
2017-06-25T02:40:00.734Z,1003.08
2017-06-25T02:40:41.227Z,1003.09
2017-06-25T02:41:21.726Z,1003.1
2017-06-25T02:42:02.216Z,1003.1
2017-06-25T02:42:42.708Z,1003.08
2017-06-25T02:43:23.201Z,1003.09
2017-06-25T02:44:03.698Z,1003.09
2017-06-25T02:44:44.174Z,1003.08
2017-06-25T02:45:24.673Z,1003.09
2017-06-25T02:46:05.167Z,1003.12
2017-06-25T02:46:45.653Z,1003.11
2017-06-25T02:47:26.159Z,1003.15
2017-06-25T02:48:06.646Z,1003.17
2017-06-25T02:48:47.148Z,1003.17
2017-06-25T02:49:27.636Z,1003.19
2017-06-25T02:50:08.131Z,1003.15
2017-06-25T02:50:48.618Z,1003.19
2017-06-25T02:51:29.106Z,1003.14
2017-06-25T02:52:09.605Z,1003.12
2017-06-25T02:52:50.084Z,1003.15
2017-06-25T02:53:30.566Z,1003.13
2017-06-25T02:54:11.077Z,1003.11
2017-06-25T02:54:51.553Z,1003.14
2017-06-25T02:55:32.047Z,1003.12
2017-06-25T02:56:12.541Z,1003.12
2017-06-25T02:56:53.033Z,1003.13
2017-06-25T02:57:33.538Z,1003.13
2017-06-25T02:58:14.033Z,1003.11
2017-06-25T02:58:54.518Z,1003.05
2017-06-25T02:59:35.019Z,1003.06
2017-06-25T03:00:15.515Z,1003.03
2017-06-25T03:00:56.012Z,1003.04
2017-06-25T03:01:36.500Z,1003.05
2017-06-25T03:02:16.984Z,1003.06
2017-06-25T03:02:57.481Z,1003.06
2017-06-25T03:03:37.964Z,1003.09
2017-06-25T03:04:18.469Z,1003.09
2017-06-25T03:04:58.947Z,1003.11
2017-06-25T03:05:39.437Z,1003.09
2017-06-25T03:06:19.935Z,1003.06
2017-06-25T03:07:00.417Z,1003.07
2017-06-25T03:07:40.904Z,1003.08
2017-06-25T03:08:21.413Z,1003.04
2017-06-25T03:09:01.917Z,1003.02
2017-06-25T03:09:42.398Z,1003.04
2017-06-25T03:10:22.894Z,1003.01
2017-06-25T03:11:03.378Z,1003.02
2017-06-25T03:11:43.880Z,1002.97
2017-06-25T03:12:24.370Z,1002.98
2017-06-25T03:13:04.869Z,1002.98
2017-06-25T03:13:45.360Z,1003.03
2017-06-25T03:14:25.850Z,1003.01
2017-06-25T03:15:06.344Z,1003.03
2017-06-25T03:15:46.822Z,1003.02
2017-06-25T03:16:27.324Z,1003.04
2017-06-25T03:17:07.817Z,1003.02
2017-06-25T03:17:48.309Z,1003.02
2017-06-25T03:18:28.808Z,1003.04
2017-06-25T03:19:09.293Z,1003.03
2017-06-25T03:19:49.783Z,1003.08
2017-06-25T03:20:30.283Z,1003.08
2017-06-25T03:21:10.775Z,1003.12
2017-06-25T03:21:51.272Z,1003.15
2017-06-25T03:22:31.755Z,1003.16
2017-06-25T03:23:12.246Z,1003.2
2017-06-25T03:23:52.745Z,1003.16
2017-06-25T03:24:33.236Z,1003.13
2017-06-25T03:25:13.765Z,1003.16
2017-06-25T03:25:54.226Z,1003.12
2017-06-25T03:28:12.048Z,1003.12
2017-06-25T03:28:52.590Z,1003.1
2017-06-25T03:29:33.052Z,1003.1
2017-06-25T03:30:13.529Z,1003.09
2017-06-25T03:30:54.025Z,1003.11
2017-06-25T03:31:34.519Z,1003.1
2017-06-25T03:32:15.010Z,1003.08
2017-06-25T03:32:55.500Z,1003.07
2017-06-25T03:33:35.990Z,1003.05
2017-06-25T03:34:16.483Z,1003.06
2017-06-25T03:34:56.981Z,1003.05
2017-06-25T03:35:37.468Z,1003.08
2017-06-25T03:36:17.954Z,1003.03
2017-06-25T03:36:58.448Z,1003.03
2017-06-25T03:37:38.937Z,1003
2017-06-25T03:38:19.431Z,1003.09
2017-06-25T03:38:59.909Z,1003.07
2017-06-25T03:39:40.399Z,1003.08
2017-06-25T03:40:20.885Z,1003.07
2017-06-25T03:41:01.407Z,1003.09
2017-06-25T03:41:41.871Z,1003.07
2017-06-25T03:42:22.354Z,1003.08
2017-06-25T03:43:02.835Z,1003.08
2017-06-25T03:43:43.338Z,1003.04
2017-06-25T03:44:23.830Z,1003.03
2017-06-25T03:45:04.309Z,1003.06
2017-06-25T03:45:44.810Z,1003.05
2017-06-25T03:46:25.306Z,1003.06
2017-06-25T03:47:05.782Z,1003.02
2017-06-25T03:47:46.288Z,1003
2017-06-25T03:48:26.783Z,1003.02
2017-06-25T03:49:07.271Z,1003.04
2017-06-25T03:49:47.772Z,1003.03
2017-06-25T03:50:28.263Z,1003.06
2017-06-25T03:51:08.749Z,1003.02
2017-06-25T03:51:49.246Z,1003.04
2017-06-25T03:52:29.733Z,1003.05
2017-06-25T03:53:10.220Z,1003.03
2017-06-25T03:53:50.701Z,1003.07
2017-06-25T03:54:31.186Z,1003.07
2017-06-25T03:55:11.677Z,1003.01
2017-06-25T03:55:52.181Z,1003.04
2017-06-25T03:56:32.649Z,1003.05
2017-06-25T03:57:13.150Z,1003.03
2017-06-25T03:57:53.655Z,1003.07
2017-06-25T03:58:34.126Z,1003.1
2017-06-25T03:59:14.626Z,1003.05
2017-06-25T03:59:55.117Z,1003.02
2017-06-25T04:00:35.618Z,1002.97
2017-06-25T04:01:16.102Z,1002.97
2017-06-25T04:01:56.603Z,1002.96
2017-06-25T04:02:37.077Z,1002.96
2017-06-25T04:03:18.131Z,1002.95
2017-06-25T04:03:58.632Z,1002.96
2017-06-25T04:04:39.125Z,1002.94
2017-06-25T04:05:19.621Z,1002.94
2017-06-25T04:06:00.117Z,1002.97
2017-06-25T04:06:40.610Z,1002.96
2017-06-25T04:07:21.111Z,1002.96
2017-06-25T04:08:01.604Z,1002.92
2017-06-25T04:08:42.094Z,1002.96
2017-06-25T04:09:22.589Z,1002.94
2017-06-25T04:10:03.086Z,1002.94
2017-06-25T04:10:43.569Z,1002.92
2017-06-25T04:11:24.062Z,1002.91
2017-06-25T04:12:04.559Z,1002.87
2017-06-25T04:12:45.057Z,1002.86
2017-06-25T04:13:25.547Z,1002.86
2017-06-25T04:14:06.040Z,1002.86
2017-06-25T04:14:46.529Z,1002.88
2017-06-25T04:15:27.060Z,1002.84
2017-06-25T04:16:07.511Z,1002.82
2017-06-25T04:16:48.002Z,1002.84
2017-06-25T04:17:28.497Z,1002.85
2017-06-25T04:18:08.993Z,1002.82
2017-06-25T04:18:49.483Z,1002.82
2017-06-25T04:19:29.960Z,1002.88
2017-06-25T04:20:10.462Z,1002.86
2017-06-25T04:20:50.970Z,1002.86
2017-06-25T04:21:31.457Z,1002.84
2017-06-25T04:22:11.947Z,1002.85
2017-06-25T04:22:52.445Z,1002.82
2017-06-25T04:23:32.935Z,1002.84
2017-06-25T04:24:13.422Z,1002.83
2017-06-25T04:24:53.908Z,1002.82
2017-06-25T04:25:34.410Z,1002.81
2017-06-25T04:26:14.904Z,1002.85
2017-06-25T04:26:55.381Z,1002.81
2017-06-25T04:27:35.854Z,1002.84
2017-06-25T04:28:16.357Z,1002.87
2017-06-25T04:28:56.856Z,1002.84
2017-06-25T04:29:37.354Z,1002.8
2017-06-25T04:30:17.857Z,1002.85
2017-06-25T04:30:58.345Z,1002.82
2017-06-25T04:31:38.857Z,1002.81
2017-06-25T04:32:19.335Z,1002.82
2017-06-25T04:32:59.820Z,1002.85
2017-06-25T04:33:40.321Z,1002.81
2017-06-25T04:34:20.818Z,1002.84
2017-06-25T04:35:01.331Z,1002.85
2017-06-25T04:35:41.822Z,1002.83
2017-06-25T04:36:22.313Z,1002.85
2017-06-25T04:37:02.820Z,1002.82
2017-06-25T04:37:43.308Z,1002.87
2017-06-25T04:38:23.792Z,1002.93
2017-06-25T04:39:04.292Z,1002.94
2017-06-25T04:39:44.784Z,1002.93
2017-06-25T04:40:25.261Z,1002.94
2017-06-25T04:41:05.763Z,1002.92
2017-06-25T04:41:46.254Z,1002.98
2017-06-25T04:42:26.747Z,1003.01
2017-06-25T04:43:07.247Z,1003.01
2017-06-25T04:43:47.747Z,1003.04
2017-06-25T04:44:28.245Z,1003.06
2017-06-25T04:45:08.732Z,1003.06
2017-06-25T04:45:49.213Z,1003.04
2017-06-25T04:46:29.706Z,1003.06
2017-06-25T04:47:10.199Z,1003.07
2017-06-25T04:47:50.694Z,1003.08
2017-06-25T04:48:31.178Z,1003.1
2017-06-25T04:49:11.676Z,1003.12
2017-06-25T04:49:52.169Z,1003.15
2017-06-25T04:50:32.655Z,1003.13
2017-06-25T04:51:13.160Z,1003.15
2017-06-25T04:51:53.645Z,1003.12
2017-06-25T04:52:34.140Z,1003.14
2017-06-25T04:53:14.658Z,1003.17
2017-06-25T04:53:55.115Z,1003.21
2017-06-25T04:54:35.619Z,1003.19
2017-06-25T04:55:16.135Z,1003.18
2017-06-25T04:55:56.628Z,1003.18
2017-06-25T04:56:37.116Z,1003.19
2017-06-25T04:57:17.615Z,1003.21
2017-06-25T04:57:58.109Z,1003.21
2017-06-25T04:58:38.598Z,1003.2
2017-06-25T04:59:19.097Z,1003.22
2017-06-25T04:59:59.595Z,1003.27
2017-06-25T05:00:40.088Z,1003.23
2017-06-25T05:01:20.574Z,1003.28
2017-06-25T05:02:01.069Z,1003.3
2017-06-25T05:02:41.567Z,1003.25
2017-06-25T05:03:22.062Z,1003.3
2017-06-25T05:04:02.558Z,1003.27
2017-06-25T05:04:43.034Z,1003.26
2017-06-25T05:05:23.529Z,1003.28
2017-06-25T05:06:04.031Z,1003.28
2017-06-25T05:06:44.507Z,1003.24
2017-06-25T05:07:25.001Z,1003.29
2017-06-25T05:08:05.500Z,1003.29
2017-06-25T05:08:45.992Z,1003.32
2017-06-25T05:09:26.478Z,1003.31
2017-06-25T05:10:06.967Z,1003.28
2017-06-25T05:10:47.460Z,1003.28
2017-06-25T05:11:27.957Z,1003.29
2017-06-25T05:12:08.444Z,1003.3
2017-06-25T05:12:48.943Z,1003.3
2017-06-25T05:13:29.435Z,1003.29
2017-06-25T05:14:09.934Z,1003.24
2017-06-25T05:14:50.428Z,1003.23
2017-06-25T05:15:30.918Z,1003.24
2017-06-25T05:16:11.398Z,1003.2
2017-06-25T05:16:51.896Z,1003.2
2017-06-25T05:17:32.388Z,1003.23
2017-06-25T05:18:12.866Z,1003.24
2017-06-25T05:18:53.366Z,1003.21
2017-06-25T05:19:33.866Z,1003.22
2017-06-25T05:20:14.366Z,1003.22
2017-06-25T05:20:54.854Z,1003.18
2017-06-25T05:21:35.342Z,1003.22
2017-06-25T05:22:15.838Z,1003.17
2017-06-25T05:22:56.327Z,1003.12
2017-06-25T05:23:36.820Z,1003.12
2017-06-25T05:24:17.316Z,1003.13
2017-06-25T05:24:57.801Z,1003.12
2017-06-25T05:25:38.298Z,1003.12
2017-06-25T05:26:18.785Z,1003.1
2017-06-25T05:26:59.282Z,1003.1
2017-06-25T05:27:39.769Z,1003.11
2017-06-25T05:28:20.270Z,1003.12
2017-06-25T05:29:00.766Z,1003.15
2017-06-25T05:29:41.254Z,1003.12
2017-06-25T05:30:21.753Z,1003.19
2017-06-25T05:31:02.242Z,1003.23
2017-06-25T05:31:42.726Z,1003.21
2017-06-25T05:32:23.216Z,1003.2
2017-06-25T05:33:03.716Z,1003.2
2017-06-25T05:33:44.204Z,1003.24
2017-06-25T05:34:24.686Z,1003.24
2017-06-25T05:35:05.189Z,1003.28
2017-06-25T05:35:45.680Z,1003.31
2017-06-25T05:36:26.170Z,1003.34
2017-06-25T05:37:06.678Z,1003.3
2017-06-25T05:37:47.176Z,1003.38
2017-06-25T05:38:27.689Z,1003.28
2017-06-25T05:39:08.177Z,1003.39
2017-06-25T05:39:48.664Z,1003.38
2017-06-25T05:40:29.167Z,1003.39
2017-06-25T05:41:09.655Z,1003.42
2017-06-25T05:41:50.147Z,1003.37
2017-06-25T05:42:30.644Z,1003.41
2017-06-25T05:43:11.140Z,1003.47
2017-06-25T05:43:51.638Z,1003.47
2017-06-25T05:44:32.147Z,1003.53
2017-06-25T05:45:12.643Z,1003.56
2017-06-25T05:45:53.143Z,1003.63
2017-06-25T05:46:33.641Z,1003.7
2017-06-25T05:47:14.138Z,1003.71
2017-06-25T05:47:54.643Z,1003.72
2017-06-25T05:48:35.133Z,1003.72
2017-06-25T05:49:15.640Z,1003.76
2017-06-25T05:49:56.120Z,1003.78
2017-06-25T05:50:36.621Z,1003.79
2017-06-25T05:51:17.117Z,1003.83
2017-06-25T05:51:57.593Z,1003.89
2017-06-25T05:52:38.085Z,1003.84
2017-06-25T05:53:18.585Z,1003.92
2017-06-25T05:53:59.075Z,1003.96
2017-06-25T05:54:39.573Z,1003.94
2017-06-25T05:55:20.064Z,1003.96
2017-06-25T05:56:00.550Z,1003.99
2017-06-25T05:56:41.050Z,1003.95
2017-06-25T05:57:21.540Z,1003.92
2017-06-25T05:58:02.031Z,1003.95
2017-06-25T05:58:42.525Z,1003.92
2017-06-25T05:59:23.016Z,1003.92
2017-06-25T06:00:03.517Z,1003.91
2017-06-25T06:00:44.007Z,1003.93
2017-06-25T06:01:24.512Z,1003.85
2017-06-25T06:02:05.004Z,1003.86
2017-06-25T06:02:45.493Z,1003.81
2017-06-25T06:03:25.980Z,1003.82
2017-06-25T06:04:06.468Z,1003.79
2017-06-25T06:04:46.959Z,1003.78
2017-06-25T06:05:27.455Z,1003.74
2017-06-25T06:06:07.954Z,1003.73
2017-06-25T06:06:48.443Z,1003.7
2017-06-25T06:07:28.955Z,1003.63
2017-06-25T06:08:09.433Z,1003.6
2017-06-25T06:08:49.939Z,1003.54
2017-06-25T06:09:30.436Z,1003.54
2017-06-25T06:10:10.925Z,1003.55
2017-06-25T06:10:51.407Z,1003.53
2017-06-25T06:11:31.858Z,1003.51
2017-06-25T06:12:12.331Z,1003.53
2017-06-25T06:12:52.838Z,1003.6
2017-06-25T06:13:33.325Z,1003.57
2017-06-25T06:14:13.826Z,1003.57
2017-06-25T06:14:54.326Z,1003.57
2017-06-25T06:15:34.827Z,1003.67
2017-06-25T06:16:15.324Z,1003.68
2017-06-25T06:16:55.820Z,1003.63
2017-06-25T06:17:36.321Z,1003.72
2017-06-25T06:18:16.820Z,1003.7
2017-06-25T06:18:57.333Z,1003.71
2017-06-25T06:19:37.833Z,1003.74
2017-06-25T06:20:18.329Z,1003.74
2017-06-25T06:20:58.837Z,1003.73
2017-06-25T06:21:39.325Z,1003.78
2017-06-25T06:22:19.831Z,1003.77
2017-06-25T06:23:00.320Z,1003.81
2017-06-25T06:23:40.818Z,1003.8
2017-06-25T06:24:21.329Z,1003.8
2017-06-25T06:25:01.817Z,1003.81
2017-06-25T06:25:42.318Z,1003.82
2017-06-25T06:26:22.806Z,1003.75
2017-06-25T06:27:03.300Z,1003.79
2017-06-25T06:27:43.785Z,1003.76
2017-06-25T06:28:24.291Z,1003.74
2017-06-25T06:29:04.774Z,1003.88
2017-06-25T06:29:45.281Z,1003.76
2017-06-25T06:30:25.776Z,1003.82
2017-06-25T06:31:06.266Z,1003.82
2017-06-25T06:31:46.779Z,1003.86
2017-06-25T06:32:27.282Z,1003.89
2017-06-25T06:33:07.798Z,1003.89
2017-06-25T06:33:48.288Z,1003.93
2017-06-25T06:34:28.805Z,1003.93
2017-06-25T06:35:09.303Z,1003.93
2017-06-25T06:35:49.803Z,1004.08
2017-06-25T06:36:30.300Z,1004.11
2017-06-25T06:37:10.790Z,1004.14
2017-06-25T06:37:51.296Z,1004.16
2017-06-25T06:38:31.792Z,1004.18
2017-06-25T06:39:12.302Z,1004.23
2017-06-25T06:39:52.831Z,1004.23
2017-06-25T06:40:33.329Z,1004.3
2017-06-25T06:41:13.827Z,1004.35
2017-06-25T06:41:54.334Z,1004.25
2017-06-25T06:42:34.841Z,1004.16
2017-06-25T06:43:15.337Z,1004.25
2017-06-25T06:43:55.847Z,1004.23
2017-06-25T06:44:36.345Z,1004.21
2017-06-25T06:45:16.848Z,1004.21
2017-06-25T06:45:57.347Z,1004.16
2017-06-25T06:46:37.849Z,1004.16
2017-06-25T06:47:18.342Z,1004.14
2017-06-25T06:47:58.839Z,1004.15
2017-06-25T06:48:39.361Z,1004.22
2017-06-25T06:49:19.853Z,1004.23
2017-06-25T06:50:00.356Z,1004.23
2017-06-25T06:50:40.847Z,1004.16
2017-06-25T06:51:21.336Z,1004.16
2017-06-25T06:52:01.836Z,1004.14
2017-06-25T06:52:42.336Z,1004.27
2017-06-25T06:53:22.833Z,1004.22
2017-06-25T06:54:03.334Z,1004.18
2017-06-25T06:54:43.834Z,1004.16
2017-06-25T06:55:24.331Z,1004.11
2017-06-25T06:56:04.831Z,1004.14
2017-06-25T06:56:45.338Z,1004.12
2017-06-25T06:57:25.834Z,1004.17
2017-06-25T06:58:06.333Z,1004.11
2017-06-25T06:58:46.825Z,1004.08
2017-06-25T06:59:27.319Z,1004.12
2017-06-25T07:00:07.803Z,1004.12
2017-06-25T07:00:48.300Z,1004.06
2017-06-25T07:01:28.797Z,1004.09
2017-06-25T07:02:09.281Z,1004.03
2017-06-25T07:02:49.802Z,1003.93
2017-06-25T07:03:30.291Z,1003.83
2017-06-25T07:04:10.799Z,1003.79
2017-06-25T07:04:51.288Z,1003.76
2017-06-25T07:05:31.781Z,1003.79
2017-06-25T07:06:12.276Z,1003.82
2017-06-25T07:06:52.776Z,1003.84
2017-06-25T07:07:33.274Z,1003.84
2017-06-25T07:08:13.788Z,1003.87
2017-06-25T07:08:54.285Z,1003.89
2017-06-25T07:09:34.792Z,1003.9
2017-06-25T07:10:15.287Z,1003.88
2017-06-25T07:10:55.787Z,1003.89
2017-06-25T07:11:36.284Z,1003.81
2017-06-25T07:12:16.776Z,1003.83
2017-06-25T07:12:57.288Z,1003.8
2017-06-25T07:13:37.775Z,1003.85
2017-06-25T07:14:18.284Z,1003.87
2017-06-25T07:14:58.802Z,1003.82
2017-06-25T07:15:39.325Z,1003.89
2017-06-25T07:16:19.835Z,1003.84
2017-06-25T07:17:00.324Z,1003.77
2017-06-25T07:17:40.820Z,1003.84
2017-06-25T07:18:21.289Z,1003.72
2017-06-25T07:19:01.789Z,1003.76
2017-06-25T07:19:42.294Z,1003.8
2017-06-25T07:20:22.781Z,1003.74
2017-06-25T07:21:03.298Z,1003.74
2017-06-25T07:21:43.790Z,1003.93
2017-06-25T07:22:24.290Z,1003.86
2017-06-25T07:23:04.785Z,1003.71
2017-06-25T07:23:45.271Z,1003.68
2017-06-25T07:25:58.002Z,1003.49
2017-06-25T07:26:38.493Z,1003.46
2017-06-25T07:27:18.997Z,1003.55
2017-06-25T07:27:59.491Z,1003.46
2017-06-25T07:28:39.990Z,1003.51
2017-06-25T07:29:20.483Z,1003.54
2017-06-25T07:30:00.989Z,1003.52
2017-06-25T07:30:41.494Z,1003.45
2017-06-25T07:31:21.985Z,1003.49
2017-06-25T07:32:02.484Z,1003.41
2017-06-25T07:32:42.977Z,1003.45
2017-06-25T07:33:23.472Z,1003.45
2017-06-25T07:34:03.999Z,1003.54
2017-06-25T07:34:44.491Z,1003.44
2017-06-25T07:35:24.985Z,1003.4
2017-06-25T07:36:05.481Z,1003.45
2017-06-25T07:36:45.980Z,1003.42
2017-06-25T07:37:26.455Z,1003.52
2017-06-25T07:39:39.205Z,1003.51
2017-06-25T07:40:19.696Z,1003.43
2017-06-25T07:41:00.172Z,1003.46
2017-06-25T07:41:40.682Z,1003.48
2017-06-25T07:42:21.169Z,1003.45
2017-06-25T07:43:01.683Z,1003.43
2017-06-25T07:43:42.156Z,1003.51
2017-06-25T07:44:22.657Z,1003.59
2017-06-25T07:45:03.156Z,1003.47
2017-06-25T07:45:43.634Z,1003.49
2017-06-25T07:46:24.127Z,1003.44
2017-06-25T07:47:04.607Z,1003.46
2017-06-25T07:47:45.114Z,1003.45
2017-06-25T07:48:25.608Z,1003.47
2017-06-25T07:49:06.104Z,1003.41
2017-06-25T07:49:46.613Z,1003.39
2017-06-25T07:50:27.122Z,1003.39
2017-06-25T07:51:07.607Z,1003.4
2017-06-25T07:51:48.108Z,1003.41
2017-06-25T07:52:28.593Z,1003.31
2017-06-25T07:53:09.084Z,1003.47
2017-06-25T07:53:49.584Z,1003.43
2017-06-25T07:54:30.073Z,1003.32
2017-06-25T07:55:10.573Z,1003.44
2017-06-25T07:55:51.062Z,1003.48
2017-06-25T07:56:31.572Z,1003.49
2017-06-25T07:57:12.069Z,1003.46
2017-06-25T07:57:52.551Z,1003.45
2017-06-25T07:58:33.058Z,1003.52
2017-06-25T07:59:13.559Z,1003.55
2017-06-25T07:59:54.054Z,1003.49
2017-06-25T08:00:34.559Z,1003.5
2017-06-25T08:01:15.093Z,1003.47
2017-06-25T08:01:55.559Z,1003.38
2017-06-25T08:02:36.051Z,1003.43
2017-06-25T08:03:16.549Z,1003.43
2017-06-25T08:03:57.054Z,1003.38
2017-06-25T08:04:37.552Z,1003.43
2017-06-25T08:05:18.061Z,1003.39
2017-06-25T08:05:58.550Z,1003.39
2017-06-25T08:06:39.044Z,1003.46
2017-06-25T08:07:19.553Z,1003.49
2017-06-25T08:08:00.053Z,1003.39
2017-06-25T08:08:40.541Z,1003.4
2017-06-25T08:09:21.031Z,1003.41
2017-06-25T08:10:02.105Z,1003.37
2017-06-25T08:10:42.600Z,1003.43
2017-06-25T08:11:23.106Z,1003.39
2017-06-25T08:12:03.619Z,1003.41
2017-06-25T08:12:44.131Z,1003.37
2017-06-25T08:13:24.610Z,1003.41
2017-06-25T08:14:05.104Z,1003.35
2017-06-25T08:14:45.614Z,1003.35
2017-06-25T08:15:26.100Z,1003.44
2017-06-25T08:16:06.611Z,1003.44
2017-06-25T08:16:47.108Z,1003.43
2017-06-25T08:17:27.620Z,1003.47